Time;durP1;ratioP1;P1;durP2;ratioP2;P2;SDS_P1;SDS_P2;PMS_P1;PMS_P2;Temp;Humidity;BMP_temperature;BMP_pressure;BME280_temperature;BME280_humidity;BME280_pressure;Samples;Min_cycle;Max_cycle;Signal;HPM_P1;HPM_P2
2022/04/05 00:01:14;;;;;;;;;16.00;12.50;;;;;10.35;100.00;101093.16;5036360;28;45341;-84
2022/04/05 00:03:39;;;;;;;;;12.00;10.75;;;;;10.37;100.00;101085.47;5001302;28;45511;-87
2022/04/05 00:06:06;;;;;;;;;13.50;12.50;;;;;10.36;100.00;101094.94;5022053;28;45645;-86
2022/04/05 00:08:31;;;;;;;;;11.50;11.50;;;;;10.41;100.00;101091.69;5007560;28;45827;-86
2022/04/05 00:10:57;;;;;;;;;13.00;11.00;;;;;10.46;100.00;101091.13;5018678;28;45408;-86
2022/04/05 00:13:23;;;;;;;;;14.75;12.00;;;;;10.48;100.00;101099.84;5019991;28;45708;-86
2022/04/05 00:15:49;;;;;;;;;14.00;11.75;;;;;10.48;100.00;101091.19;5017654;28;45240;-86
2022/04/05 00:18:15;;;;;;;;;18.75;14.25;;;;;10.48;100.00;101091.19;5016197;28;45347;-86
2022/04/05 00:20:41;;;;;;;;;11.00;11.00;;;;;10.49;100.00;101088.69;5008185;28;45382;-86
2022/04/05 00:23:07;;;;;;;;;12.25;11.75;;;;;10.49;100.00;101092.97;5016664;28;45453;-86
2022/04/05 00:25:33;;;;;;;;;14.00;12.00;;;;;10.49;100.00;101096.47;5018581;28;45590;-86
2022/04/05 00:27:59;;;;;;;;;11.50;10.50;;;;;10.50;100.00;101093.06;5022367;28;45355;-86
2022/04/05 00:30:24;;;;;;;;;13.75;13.75;;;;;10.53;100.00;101089.72;5020608;28;45360;-87
2022/04/05 00:32:50;;;;;;;;;14.75;12.00;;;;;10.51;100.00;101091.34;5017991;28;45555;-87
2022/04/05 00:35:16;;;;;;;;;13.75;12.50;;;;;10.52;100.00;101099.22;5022391;28;45638;-85
2022/04/05 00:37:42;;;;;;;;;11.75;11.00;;;;;10.50;100.00;101089.56;5039470;28;45465;-80
2022/04/05 00:40:08;;;;;;;;;13.00;12.50;;;;;10.50;100.00;101084.38;5023010;28;45475;-86
2022/04/05 00:42:39;;;;;;;;;15.75;13.25;;;;;10.50;100.00;101089.56;5018477;28;45424;-84
2022/04/05 00:45:06;;;;;;;;;13.00;11.50;;;;;10.48;100.00;101079.16;5022779;28;45355;-87
2022/04/05 00:47:32;;;;;;;;;14.00;12.75;;;;;10.41;100.00;101083.94;5028859;28;45950;-86
2022/04/05 00:49:59;;;;;;;;;11.00;11.00;;;;;10.34;100.00;101093.06;5026665;28;45387;-85
2022/04/05 00:52:25;;;;;;;;;12.75;10.75;;;;;10.30;100.00;101083.38;5023664;28;45518;-86
2022/04/05 00:54:52;;;;;;;;;11.25;10.25;;;;;10.29;100.00;101082.47;5030781;28;45547;-84
2022/04/05 00:57:21;;;;;;;;;12.50;11.75;;;;;10.31;100.00;101078.28;5038471;28;46194;-86
2022/04/05 00:59:52;;;;;;;;;13.00;13.00;;;;;10.33;100.00;101081.84;5034339;28;45349;-85
2022/04/05 01:02:20;;;;;;;;;15.00;12.75;;;;;10.34;100.00;101080.13;5033515;28;45298;-80
2022/04/05 01:04:47;;;;;;;;;11.75;11.50;;;;;10.34;100.00;101070.66;5018436;28;46137;-79
2022/04/05 01:07:18;;;;;;;;;13.50;13.00;;;;;10.32;100.00;101074.88;5031021;28;45281;-78
2022/04/05 01:09:44;;;;;;;;;11.25;11.25;;;;;10.34;100.00;101070.66;5019941;28;45393;-80
2022/04/05 01:12:11;;;;;;;;;12.00;10.25;;;;;10.35;100.00;101066.38;5020883;28;45364;-81
2022/04/05 01:14:38;;;;;;;;;16.25;13.00;;;;;10.36;100.00;101071.63;5037647;28;45510;-79
2022/04/05 01:17:06;;;;;;;;;13.25;12.25;;;;;10.37;100.00;101075.09;5038391;28;45593;-87
2022/04/05 01:19:33;;;;;;;;;11.00;11.00;;;;;10.36;100.00;101073.31;5022270;28;45392;-87
2022/04/05 01:22:00;;;;;;;;;14.25;12.00;;;;;10.35;100.00;101074.13;5021482;28;45270;-86
2022/04/05 01:24:27;;;;;;;;;16.50;14.00;;;;;10.34;100.00;101078.44;5027873;28;45396;-87
2022/04/05 01:26:57;;;;;;;;;13.00;12.00;;;;;10.33;100.00;101062.81;5019409;28;45533;-85
2022/04/05 01:29:26;;;;;;;;;13.25;13.25;;;;;10.33;100.00;101053.38;5019605;28;45233;-86
2022/04/05 01:31:53;;;;;;;;;12.50;12.00;;;;;10.35;100.00;101054.34;5014466;28;45494;-87
2022/04/05 01:34:21;;;;;;;;;15.00;12.50;;;;;10.36;100.00;101058.69;5003565;28;45605;-88
2022/04/05 01:36:52;;;;;;;;;12.25;9.75;;;;;10.37;100.00;101054.41;5026075;28;45943;-87
2022/04/05 01:39:23;;;;;;;;;16.25;13.00;;;;;10.37;100.00;101052.72;5020506;28;45986;-80
2022/04/05 01:42:00;;;;;;;;;14.25;11.25;;;;;10.32;100.00;101046.41;5024039;28;45359;-77
2022/04/05 01:44:27;;;;;;;;;12.00;11.75;;;;;10.34;100.00;101049.06;5019654;28;45585;-80
2022/04/05 01:46:54;;;;;;;;;11.00;11.00;;;;;10.31;100.00;101043.75;5033591;28;46096;-80
2022/04/05 01:49:20;;;;;;;;;12.00;12.00;;;;;10.30;100.00;101048.03;5036373;28;45430;-79
2022/04/05 01:51:46;;;;;;;;;12.00;11.50;;;;;10.31;100.00;101046.34;5006670;28;45473;-79
2022/04/05 01:54:15;;;;;;;;;12.00;12.00;;;;;10.32;100.00;101050.69;5018653;28;45474;-79
2022/04/05 01:56:44;;;;;;;;;12.50;11.00;;;;;10.30;100.00;101037.69;5025266;28;45553;-80
2022/04/05 01:59:11;;;;;;;;;12.75;10.75;;;;;10.30;100.00;101050.63;5036751;28;45518;-76
2022/04/05 02:01:37;;;;;;;;;14.75;12.75;;;;;10.32;100.00;101041.22;5018176;28;45459;-79
2022/04/05 02:04:03;;;;;;;;;14.25;11.25;;;;;10.35;100.00;101043.97;5011651;28;45493;-79
2022/04/05 02:06:28;;;;;;;;;13.50;11.75;;;;;10.33;100.00;101032.66;5020097;28;45470;-79
2022/04/05 02:08:54;;;;;;;;;16.25;12.75;;;;;10.35;100.00;101032.72;5016155;28;45447;-78
2022/04/05 02:11:20;;;;;;;;;12.50;11.75;;;;;10.36;100.00;101042.25;5034581;28;45491;-79
2022/04/05 02:13:45;;;;;;;;;13.50;13.50;;;;;10.37;100.00;101036.28;5023858;28;45458;-79
2022/04/05 02:16:11;;;;;;;;;10.25;10.25;;;;;10.38;100.00;101038.97;5022144;28;45498;-77
2022/04/05 02:18:37;;;;;;;;;11.75;9.50;;;;;10.41;100.00;101042.53;5022475;28;45269;-79
2022/04/05 02:21:05;;;;;;;;;11.00;11.00;;;;;10.42;100.00;101046.91;5022751;28;45511;-80
2022/04/05 02:23:31;;;;;;;;;13.25;11.00;;;;;10.40;100.00;101046.81;5023172;28;45566;-79
2022/04/05 02:25:57;;;;;;;;;13.25;11.25;;;;;10.41;100.00;101045.09;5000872;28;47499;-79
2022/04/05 02:28:23;;;;;;;;;12.00;12.00;;;;;10.41;100.00;101046.03;5018811;28;45911;-79
2022/04/05 02:30:49;;;;;;;;;11.00;10.25;;;;;10.42;100.00;101040.00;5025184;28;45457;-80
2022/04/05 02:33:14;;;;;;;;;10.50;10.50;;;;;10.43;100.00;101038.31;5023536;28;45554;-80
2022/04/05 02:35:40;;;;;;;;;14.00;13.00;;;;;10.41;100.00;101024.41;5029883;28;46694;-79
2022/04/05 02:38:06;;;;;;;;;12.00;12.00;;;;;10.38;100.00;101025.16;5017546;28;45411;-77
2022/04/05 02:40:32;;;;;;;;;15.00;14.00;;;;;10.38;100.00;101025.16;5021492;28;45459;-77
2022/04/05 02:42:58;;;;;;;;;11.75;10.50;;;;;10.39;100.00;101026.94;5017368;28;45435;-77
2022/04/05 02:45:23;;;;;;;;;14.75;13.75;;;;;10.38;100.00;101022.56;5029931;28;46008;-79
2022/04/05 02:47:49;;;;;;;;;12.00;12.00;;;;;10.39;100.00;101024.34;5028048;28;45407;-76
2022/04/05 02:50:18;;;;;;;;;15.50;12.00;;;;;10.40;100.00;101018.34;5017154;28;45322;-77
2022/04/05 02:52:48;;;;;;;;;11.75;11.00;;;;;10.37;100.00;101021.66;5017443;28;45432;-79
2022/04/05 02:55:15;;;;;;;;;16.00;12.25;;;;;10.35;100.00;101009.44;5019340;28;45566;-80
2022/04/05 02:57:43;;;;;;;;;15.25;12.00;;;;;10.35;100.00;101015.50;5034288;28;45980;-79
2022/04/05 03:00:13;;;;;;;;;15.00;14.25;;;;;10.35;100.00;101020.69;5017584;28;45417;-78
2022/04/05 03:02:40;;;;;;;;;12.50;12.00;;;;;10.37;100.00;101018.16;5032537;28;46706;-77
2022/04/05 03:05:07;;;;;;;;;11.00;11.00;;;;;10.35;100.00;101015.50;5017194;28;46712;-77
2022/04/05 03:07:37;;;;;;;;;13.75;12.00;;;;;10.37;100.00;101016.47;5037410;28;45744;-78
2022/04/05 03:10:10;;;;;;;;;11.00;11.00;;;;;10.40;100.00;101017.44;5034784;28;45538;-77
2022/04/05 03:12:36;;;;;;;;;10.75;8.75;;;;;10.46;100.00;101022.94;5020676;28;45601;-77
2022/04/05 03:15:06;;;;;;;;;16.00;14.00;;;;;10.48;100.00;101018.69;5021674;28;45387;-79
2022/04/05 03:17:32;;;;;;;;;15.75;13.00;;;;;10.44;100.00;101011.63;5015934;28;45716;-80
2022/04/05 03:20:03;;;;;;;;;12.25;10.25;;;;;10.42;100.00;101010.66;5020599;28;45402;-78
2022/04/05 03:22:29;;;;;;;;;10.75;10.00;;;;;10.43;100.00;101010.72;5030568;28;45498;-79
2022/04/05 03:24:55;;;;;;;;;13.25;11.25;;;;;10.47;100.00;101009.19;5026253;28;46128;-80
2022/04/05 03:27:20;;;;;;;;;9.50;9.50;;;;;10.48;100.00;101008.34;5022829;28;45274;-79
2022/04/05 03:29:46;;;;;;;;;11.00;10.00;;;;;10.50;100.00;101007.63;5016920;28;45306;-80
2022/04/05 03:32:11;;;;;;;;;12.00;10.75;;;;;10.47;100.00;101004.88;5018336;28;45246;-77
2022/04/05 03:34:40;;;;;;;;;13.25;11.00;;;;;10.45;100.00;101001.34;5016696;28;45425;-80
2022/04/05 03:37:06;;;;;;;;;11.75;8.50;;;;;10.47;100.00;101006.59;5020046;28;45439;-80
2022/04/05 03:39:33;;;;;;;;;10.50;10.25;;;;;10.45;100.00;101003.03;5016523;28;45292;-80
2022/04/05 03:41:59;;;;;;;;;11.00;9.25;;;;;10.44;100.00;101001.28;5033205;28;45486;-80
2022/04/05 03:44:25;;;;;;;;;10.25;10.00;;;;;10.42;100.00;101003.75;5036666;28;45288;-80
2022/04/05 03:46:53;;;;;;;;;11.00;10.00;;;;;10.42;100.00;101000.31;5024529;28;45266;-78
2022/04/05 03:49:19;;;;;;;;;8.50;8.50;;;;;10.38;100.00;100991.50;4999646;28;45269;-79
2022/04/05 03:51:44;;;;;;;;;11.50;10.00;;;;;10.34;100.00;100985.25;5022977;28;45363;-79
2022/04/05 03:54:10;;;;;;;;;10.75;10.00;;;;;10.34;100.00;100986.94;5030725;28;45494;-80
2022/04/05 03:56:36;;;;;;;;;10.75;10.50;;;;;10.33;100.00;100985.16;5016579;28;45356;-80
2022/04/05 03:59:01;;;;;;;;;8.00;7.00;;;;;10.31;100.00;100992.00;5016689;28;45446;-79
2022/04/05 04:01:27;;;;;;;;;12.00;9.25;;;;;10.34;100.00;100989.53;5016429;28;45503;-79
2022/04/05 04:03:52;;;;;;;;;9.75;7.75;;;;;10.32;100.00;100993.75;5016191;28;45368;-80
2022/04/05 04:06:18;;;;;;;;;12.50;9.25;;;;;10.33;100.00;100993.84;5016484;28;45318;-79
2022/04/05 04:08:44;;;;;;;;;10.75;9.75;;;;;10.35;100.00;100993.91;5016427;28;45270;-79
2022/04/05 04:11:09;;;;;;;;;10.25;10.00;;;;;10.34;100.00;100990.44;5016732;28;45478;-79
2022/04/05 04:13:35;;;;;;;;;9.00;7.00;;;;;10.36;100.00;101013.78;5016482;28;45904;-80
2022/04/05 04:16:01;;;;;;;;;10.75;10.75;;;;;10.32;100.00;100992.06;5016220;28;45371;-79
2022/04/05 04:18:26;;;;;;;;;9.25;7.75;;;;;10.32;100.00;100983.38;5016674;28;45887;-80
2022/04/05 04:20:52;;;;;;;;;10.25;10.25;;;;;10.34;100.00;100986.94;5015711;28;45175;-80
2022/04/05 04:23:19;;;;;;;;;9.75;9.25;;;;;10.35;100.00;100978.38;5016265;28;45404;-79
2022/04/05 04:25:44;;;;;;;;;8.50;7.25;;;;;10.37;100.00;100989.69;5016121;28;45920;-79
2022/04/05 04:28:11;;;;;;;;;11.75;10.50;;;;;10.36;100.00;100982.75;5015069;28;45364;-79
2022/04/05 04:30:39;;;;;;;;;11.00;11.00;;;;;10.33;100.00;100978.31;5015761;28;45555;-79
2022/04/05 04:33:05;;;;;;;;;12.50;10.75;;;;;10.33;100.00;100975.72;5015821;28;46394;-79
2022/04/05 04:35:31;;;;;;;;;12.50;10.00;;;;;10.35;100.00;100980.97;5015537;28;45286;-79
2022/04/05 04:37:58;;;;;;;;;10.25;7.75;;;;;10.36;100.00;100986.22;5015856;28;45253;-78
2022/04/05 04:40:25;;;;;;;;;12.50;11.25;;;;;10.31;100.00;100982.53;5015969;28;45553;-79
2022/04/05 04:42:51;;;;;;;;;12.00;11.00;;;;;10.29;100.00;100980.69;5015593;28;46568;-79
2022/04/05 04:45:17;;;;;;;;;12.25;10.50;;;;;10.26;100.00;100978.81;5015962;28;45501;-76
2022/04/05 04:47:43;;;;;;;;;11.50;11.50;;;;;10.23;100.00;100978.69;5015578;28;45323;-77
2022/04/05 04:50:12;;;;;;;;;12.75;12.00;;;;;10.22;100.00;100976.91;5004182;28;45656;-77
2022/04/05 04:52:38;;;;;;;;;12.00;9.00;;;;;10.19;100.00;100977.66;5015988;28;45568;-76
2022/04/05 04:55:05;;;;;;;;;11.00;8.75;;;;;10.19;100.00;100975.06;5014992;28;45638;-77
2022/04/05 04:57:31;;;;;;;;;12.50;11.00;;;;;10.19;100.00;100968.97;5015921;28;45404;-78
2022/04/05 04:59:57;;;;;;;;;10.50;10.00;;;;;10.21;100.00;100978.59;5015660;28;45528;-79
2022/04/05 05:02:23;;;;;;;;;12.00;11.00;;;;;10.22;100.00;100970.00;5015637;28;46223;-79
2022/04/05 05:04:49;;;;;;;;;12.00;9.75;;;;;10.22;100.00;100969.13;5015393;28;45427;-80
2022/04/05 05:07:15;;;;;;;;;11.00;9.00;;;;;10.22;100.00;100972.59;5015927;28;45158;-79
2022/04/05 05:09:41;;;;;;;;;13.50;11.00;;;;;10.27;100.00;100971.94;4997834;28;45579;-79
2022/04/05 05:12:10;;;;;;;;;8.75;8.75;;;;;10.29;100.00;100975.50;5016024;28;45659;-79
2022/04/05 05:14:36;;;;;;;;;9.25;9.25;;;;;10.28;100.00;100979.78;5015751;28;45385;-79
2022/04/05 05:17:02;;;;;;;;;12.00;8.25;;;;;10.27;100.00;100974.53;5018922;28;45332;-79
2022/04/05 05:19:28;;;;;;;;;12.25;11.00;;;;;10.28;100.00;100978.91;5015575;28;45576;-79
2022/04/05 05:21:54;;;;;;;;;11.00;10.00;;;;;10.28;100.00;100971.13;5022351;28;45408;-80
2022/04/05 05:24:19;;;;;;;;;12.25;11.00;;;;;10.28;100.00;100965.97;5019336;28;45215;-79
2022/04/05 05:26:45;;;;;;;;;9.25;8.00;;;;;10.31;100.00;100966.13;5015523;28;45323;-79
2022/04/05 05:29:12;;;;;;;;;14.75;12.75;;;;;10.30;100.00;100967.81;5017242;28;45333;-79
2022/04/05 05:31:38;;;;;;;;;11.00;10.50;;;;;10.30;100.00;100969.50;4995888;28;46060;-77
2022/04/05 05:34:03;;;;;;;;;12.00;12.00;;;;;10.28;100.00;100968.53;4995451;28;45334;-77
2022/04/05 05:36:29;;;;;;;;;12.50;11.75;;;;;10.29;100.00;100968.63;5008429;28;45388;-77
2022/04/05 05:38:55;;;;;;;;;11.50;11.50;;;;;10.31;100.00;100963.53;5017095;28;45539;-78
2022/04/05 05:41:20;;;;;;;;;10.00;8.75;;;;;10.32;100.00;100963.59;5012793;28;46721;-80
2022/04/05 05:43:46;;;;;;;;;17.00;13.00;;;;;10.33;100.00;100961.88;5023929;28;45329;-78
2022/04/05 05:46:13;;;;;;;;;14.00;13.00;;;;;10.34;100.00;100961.97;5014907;28;45465;-78
2022/04/05 05:48:39;;;;;;;;;10.25;10.00;;;;;10.33;100.00;100967.97;5018720;28;45406;-80
2022/04/05 05:51:05;;;;;;;;;14.00;11.25;;;;;10.34;100.00;100974.91;5023105;28;45347;-77
2022/04/05 05:53:32;;;;;;;;;11.50;11.00;;;;;10.36;100.00;100972.38;5017637;28;45810;-78
2022/04/05 05:55:57;;;;;;;;;10.75;10.75;;;;;10.36;100.00;100968.13;5017654;28;45286;-78
2022/04/05 05:58:24;;;;;;;;;8.50;8.50;;;;;10.36;100.00;100973.28;5020568;28;45320;-77
2022/04/05 06:00:51;;;;;;;;;11.00;9.50;;;;;10.37;100.00;100975.06;5014948;28;46672;-78
2022/04/05 06:03:17;;;;;;;;;12.50;11.75;;;;;10.43;100.00;100982.25;5017031;28;45410;-78
2022/04/05 06:05:43;;;;;;;;;13.00;11.00;;;;;10.47;100.00;100978.13;5034903;28;45464;-78
2022/04/05 06:08:09;;;;;;;;;9.50;9.50;;;;;10.51;100.00;100985.22;5027001;28;45550;-82
2022/04/05 06:10:36;;;;;;;;;12.00;11.00;;;;;10.57;100.00;100994.97;5032106;28;45494;-80
2022/04/05 06:13:02;;;;;;;;;9.50;8.00;;;;;10.57;100.00;100992.38;5036808;28;45799;-81
2022/04/05 06:15:29;;;;;;;;;14.00;8.50;;;;;10.55;100.00;100986.22;5028515;28;45232;-84
2022/04/05 06:17:55;;;;;;;;;12.25;9.00;;;;;10.54;100.00;100990.53;5018123;28;45599;-87
2022/04/05 06:20:22;;;;;;;;;11.25;11.25;;;;;10.58;100.00;100989.88;5034966;28;45538;-87
2022/04/05 06:22:53;;;;;;;;;13.50;13.50;;;;;10.61;100.00;100991.72;5019533;28;45992;-77
2022/04/05 06:25:27;;;;;;;;;12.75;11.00;;;;;10.61;100.00;100991.72;5020586;28;45336;-84
2022/04/05 06:27:54;;;;;;;;;12.00;11.00;;;;;10.61;100.00;101002.94;5018716;28;45661;-86
2022/04/05 06:30:19;;;;;;;;;13.00;11.75;;;;;10.62;100.00;101001.28;5018299;28;45575;-79
2022/04/05 06:32:46;;;;;;;;;14.25;10.75;;;;;10.62;100.00;101004.72;5019111;28;45353;-80
2022/04/05 06:35:12;;;;;;;;;12.75;11.25;;;;;10.63;100.00;101006.50;5020365;28;45456;-76
2022/04/05 06:37:41;;;;;;;;;14.00;12.50;;;;;10.66;100.00;101006.66;5024320;28;45317;-80
2022/04/05 06:40:07;;;;;;;;;13.75;12.25;;;;;10.71;100.00;101011.16;5019731;28;46935;-80
2022/04/05 06:42:34;;;;;;;;;12.00;12.00;;;;;10.75;100.00;101006.19;5013284;28;46643;-81
2022/04/05 06:44:59;;;;;;;;;13.00;11.00;;;;;10.76;100.00;101012.28;5000506;28;45555;-81
2022/04/05 06:47:25;;;;;;;;;12.75;11.50;;;;;10.76;100.00;101005.38;5024641;28;45575;-81
2022/04/05 06:49:51;;;;;;;;;13.00;11.25;;;;;10.78;100.00;101011.53;5018452;28;45470;-84
2022/04/05 06:52:16;;;;;;;;;10.75;9.75;;;;;10.79;100.00;101010.72;5020389;28;45438;-76
2022/04/05 06:54:42;;;;;;;;;13.50;11.00;;;;;10.79;100.00;101005.53;5016166;28;45425;-78
2022/04/05 06:57:09;;;;;;;;;10.75;8.25;;;;;10.82;100.00;101004.78;5018464;28;45272;-80
2022/04/05 06:59:35;;;;;;;;;10.75;10.75;;;;;10.83;100.00;101011.75;5001613;28;48190;-85
2022/04/05 07:02:00;;;;;;;;;9.50;8.25;;;;;10.86;100.00;101011.88;4996942;28;45531;-85
2022/04/05 07:04:26;;;;;;;;;12.50;9.50;;;;;10.89;100.00;101003.38;5011842;28;45954;-81
2022/04/05 07:06:52;;;;;;;;;14.00;11.25;;;;;10.93;100.00;101008.75;5014613;28;45491;-76
2022/04/05 07:09:18;;;;;;;;;10.25;9.00;;;;;10.96;100.00;101006.31;5017173;28;46224;-81
2022/04/05 07:11:43;;;;;;;;;10.75;8.00;;;;;11.01;100.00;101003.94;5015167;28;45653;-81
2022/04/05 07:14:09;;;;;;;;;9.50;8.50;;;;;11.04;100.00;101010.97;5017807;28;45485;-79
2022/04/05 07:16:35;;;;;;;;;13.25;10.50;;;;;11.06;100.00;100998.97;5019240;28;45494;-76
2022/04/05 07:19:00;;;;;;;;;8.50;8.00;;;;;11.09;100.00;101004.28;5013775;28;45559;-76
2022/04/05 07:21:26;;;;;;;;;7.50;7.50;;;;;11.11;100.00;101011.31;5016269;28;45569;-77
2022/04/05 07:23:52;;;;;;;;;11.75;10.50;;;;;11.13;100.00;100999.31;5010896;28;45544;-78
2022/04/05 07:26:21;;;;;;;;;10.00;8.50;;;;;11.17;100.00;101002.94;5014633;28;45620;-79
2022/04/05 07:28:48;;;;;;;;;8.75;8.75;;;;;11.20;100.00;101004.78;5014317;28;45478;-80
2022/04/05 07:31:15;;;;;;;;;8.50;8.00;;;;;11.19;100.00;101003.91;5010353;28;45574;-78
2022/04/05 07:33:41;;;;;;;;;9.75;8.75;;;;;11.18;100.00;101002.13;5019704;28;45451;-80
2022/04/05 07:36:06;;;;;;;;;11.00;8.25;;;;;11.20;100.00;101000.50;5003641;28;46082;-77
2022/04/05 07:38:32;;;;;;;;;11.25;8.00;;;;;11.25;100.00;101003.28;5014285;28;46035;-77
2022/04/05 07:40:57;;;;;;;;;8.00;7.00;;;;;11.29;100.00;101008.69;5012146;28;45451;-76
2022/04/05 07:43:26;;;;;;;;;7.75;7.75;;;;;11.32;100.00;101009.63;5005423;28;45542;-76
2022/04/05 07:45:56;;;;;;;;;7.75;7.75;;;;;11.31;100.00;101006.13;5012805;28;45421;-76
2022/04/05 07:48:29;;;;;;;;;11.75;10.50;;;;;11.30;100.00;101013.03;5014113;28;45434;-82
2022/04/05 07:50:55;;;;;;;;;11.00;7.50;;;;;11.35;100.00;101008.06;4998125;28;45404;-79
2022/04/05 07:53:22;;;;;;;;;8.00;8.00;;;;;11.34;100.00;101008.88;4995930;28;45539;-84
2022/04/05 07:55:50;;;;;;;;;14.00;11.00;;;;;11.38;100.00;101007.31;4989809;28;45456;-83
2022/04/05 07:58:16;;;;;;;;;10.00;7.50;;;;;11.42;100.00;101004.91;5012022;28;45993;-77
2022/04/05 08:00:42;;;;;;;;;12.50;9.75;;;;;11.42;100.00;101002.31;5013947;28;45819;-76
2022/04/05 08:03:08;;;;;;;;;9.00;8.00;;;;;11.46;100.00;101009.44;4996919;28;45493;-76
2022/04/05 08:05:34;;;;;;;;;9.75;9.50;;;;;11.53;100.00;101012.28;5014316;28;45526;-76
2022/04/05 08:07:59;;;;;;;;;9.50;7.75;;;;;11.51;100.00;101011.31;5013985;28;46268;-75
2022/04/05 08:10:25;;;;;;;;;13.25;11.50;;;;;11.49;100.00;101008.66;5018487;28;45526;-76
2022/04/05 08:12:50;;;;;;;;;10.50;10.50;;;;;11.50;100.00;101013.03;5015692;28;45450;-80
2022/04/05 08:15:21;;;;;;;;;13.25;12.75;;;;;11.52;100.00;101023.47;5018297;28;45553;-79
2022/04/05 08:17:48;;;;;;;;;13.00;8.75;;;;;11.50;100.00;101027.72;5032619;28;46052;-76
2022/04/05 08:20:15;;;;;;;;;11.00;7.75;;;;;11.46;100.00;101012.03;5015439;28;45845;-78
2022/04/05 08:22:42;;;;;;;;;9.25;9.25;;;;;11.44;100.00;101018.84;5026562;28;45322;-77
2022/04/05 08:25:09;;;;;;;;;11.50;8.50;;;;;11.45;100.00;101010.25;5020760;28;45519;-76
2022/04/05 08:27:36;;;;;;;;;10.75;9.50;;;;;11.45;100.00;101019.72;5015413;28;45435;-75
2022/04/05 08:30:03;;;;;;;;;11.25;10.50;;;;;11.45;100.00;101018.03;5015645;28;45609;-75
2022/04/05 08:32:30;;;;;;;;;11.50;9.25;;;;;11.48;100.00;101013.81;5025430;28;45433;-75
2022/04/05 08:34:56;;;;;;;;;14.00;10.50;;;;;11.48;100.00;101017.25;5030944;28;45540;-74
2022/04/05 08:37:24;;;;;;;;;10.00;8.00;;;;;11.52;100.00;101026.97;5015820;28;46022;-74
2022/04/05 08:39:51;;;;;;;;;10.25;10.25;;;;;11.50;100.00;101015.63;5015998;28;45321;-77
2022/04/05 08:42:17;;;;;;;;;9.00;9.00;;;;;11.51;100.00;101017.41;5000649;28;45545;-77
2022/04/05 08:44:43;;;;;;;;;16.75;11.50;;;;;11.53;100.00;101010.59;5020197;28;45518;-74
2022/04/05 08:47:12;;;;;;;;;12.00;12.00;;;;;11.55;100.00;101013.25;5028361;28;45983;-85
2022/04/05 08:49:38;;;;;;;;;11.75;10.25;;;;;11.57;100.00;101016.78;5016249;28;45939;-86
2022/04/05 08:52:05;;;;;;;;;16.25;13.00;;;;;11.61;100.00;101019.59;5032314;28;45436;-85
2022/04/05 08:54:31;;;;;;;;;13.00;11.75;;;;;11.64;100.00;101010.19;5019194;28;45398;-84
2022/04/05 08:56:57;;;;;;;;;16.75;15.00;;;;;11.64;100.00;101012.78;5018229;28;45324;-80
2022/04/05 08:59:23;;;;;;;;;13.25;12.25;;;;;11.61;100.00;101003.13;5020528;28;45398;-91
2022/04/05 09:01:52;;;;;;;;;13.50;11.75;;;;;11.62;100.00;101010.09;5018660;28;45174;-92
2022/04/05 09:04:18;;;;;;;;;13.75;12.75;;;;;11.64;100.00;101010.19;5020535;28;45628;-88
2022/04/05 09:06:47;;;;;;;;;13.75;12.75;;;;;11.66;100.00;101009.41;5021422;28;45338;-88
2022/04/05 09:09:18;;;;;;;;;10.25;10.25;;;;;11.69;100.00;101004.38;5001189;28;45371;-81
2022/04/05 09:11:49;;;;;;;;;14.00;13.00;;;;;11.68;100.00;101004.28;5016907;28;45317;-80
2022/04/05 09:14:26;;;;;;;;;15.25;12.25;;;;;11.72;100.00;100999.28;5019244;28;45527;-86
2022/04/05 09:17:06;;;;;;;;;12.75;10.00;;;;;11.77;100.00;100991.69;5020354;28;45493;-80
2022/04/05 09:19:43;;;;;;;;;11.25;11.25;;;;;11.85;100.00;101010.19;5020178;28;45862;-78
2022/04/05 09:22:09;;;;;;;;;12.75;11.75;;;;;11.95;100.00;101009.75;5016665;28;46132;-77
2022/04/05 09:24:45;;;;;;;;;13.50;11.75;;;;;12.00;100.00;101010.91;5020847;28;45545;-83
2022/04/05 09:27:11;;;;;;;;;14.25;10.50;;;;;12.05;100.00;101017.16;5021397;28;45416;-88
2022/04/05 09:29:51;;;;;;;;;13.50;13.00;;;;;12.08;100.00;101006.03;5021296;28;45347;-82
2022/04/05 09:32:36;;;;;;;;;12.50;10.00;;;;;12.13;100.00;101011.41;5022186;28;45387;-75
2022/04/05 09:35:03;;;;;;;;;16.00;14.25;;;;;12.17;100.00;101008.09;5034834;28;45340;-80
2022/04/05 09:37:29;;;;;;;;;12.00;10.50;;;;;12.17;100.00;101015.88;5005009;28;45254;-82
2022/04/05 09:40:21;;;;;;;;;14.00;12.25;;;;;12.19;100.00;101009.06;5017000;28;45265;-80
2022/04/05 09:43:10;;;;;;;;;13.75;13.75;;;;;12.21;100.00;101012.59;5028749;28;45512;-76
2022/04/05 09:45:53;;;;;;;;;13.25;11.75;;;;;12.21;100.00;101008.28;5039663;28;45419;-79
2022/04/05 09:48:35;;;;;;;;;12.00;12.00;;;;;12.21;100.00;101012.59;5033866;28;45639;-77
2022/04/05 09:51:10;;;;;;;;;16.00;13.50;;;;;12.25;100.00;101003.22;5000804;28;45728;-80
2022/04/05 09:53:39;;;;;;;;;12.00;11.00;;;;;12.28;100.00;101013.75;5018362;28;45485;-75
2022/04/05 09:56:09;;;;;;;;;11.75;10.50;;;;;12.27;100.00;101012.84;4999565;28;45653;-79
2022/04/05 09:58:36;;;;;;;;;15.00;11.75;;;;;12.27;100.00;101009.38;5005841;28;46338;-83
2022/04/05 10:01:08;;;;;;;;;24.75;20.75;;;;;12.27;100.00;101007.66;5019224;28;45864;-85
2022/04/05 10:03:42;;;;;;;;;18.75;15.50;;;;;12.27;100.00;101028.44;5017614;28;45372;-82
2022/04/05 10:06:09;;;;;;;;;17.25;12.25;;;;;12.21;100.00;101010.00;5020680;28;45587;-86
2022/04/05 10:08:37;;;;;;;;;12.50;10.00;;;;;12.19;100.00;101012.56;5020145;28;46465;-80
2022/04/05 10:11:04;;;;;;;;;14.00;11.25;;;;;12.16;100.00;101016.72;5014753;28;45495;-79
2022/04/05 10:13:30;;;;;;;;;10.25;10.00;;;;;12.15;100.00;101012.38;5015126;28;45538;-80
2022/04/05 10:15:57;;;;;;;;;16.50;13.00;;;;;12.09;100.00;101007.81;5017975;28;45343;-80
2022/04/05 10:18:24;;;;;;;;;13.00;11.50;;;;;12.13;100.00;101008.81;5017489;28;46078;-81
2022/04/05 10:20:52;;;;;;;;;13.50;10.75;;;;;12.19;100.00;101020.34;5009722;28;45517;-76
2022/04/05 10:23:20;;;;;;;;;15.25;11.25;;;;;12.23;100.00;101016.16;4999808;28;45974;-82
2022/04/05 10:25:51;;;;;;;;;11.50;11.50;;;;;12.28;100.00;101014.63;5010062;28;45613;-79
2022/04/05 10:28:24;;;;;;;;;12.50;11.50;;;;;12.32;100.00;101013.03;5017440;28;46132;-78
2022/04/05 10:31:14;;;;;;;;;14.75;11.75;;;;;12.34;100.00;101014.91;5016048;28;45934;-79
2022/04/05 10:34:09;;;;;;;;;12.50;11.50;;;;;12.39;100.00;101002.09;5007683;28;45436;-77
2022/04/05 10:36:35;;;;;;;;;10.25;10.25;;;;;12.42;100.00;101006.50;5022010;28;45673;-80
2022/04/05 10:39:15;;;;;;;;;10.25;9.75;;;;;12.43;100.00;101016.09;5017140;28;45424;-81
2022/04/05 10:41:42;;;;;;;;;11.50;8.75;;;;;12.45;100.00;101020.50;5000479;28;45647;-83
2022/04/05 10:44:16;;;;;;;;;11.25;9.50;;;;;12.45;100.00;101007.53;5018462;28;45369;-83
2022/04/05 10:46:50;;;;;;;;;16.00;11.75;;;;;12.51;100.00;101010.38;5017901;28;45226;-82
2022/04/05 10:49:51;;;;;;;;;16.50;14.50;;;;;12.60;100.00;101009.84;5018160;28;45280;-79
2022/04/05 10:52:27;;;;;;;;;9.00;8.00;;;;;12.57;100.00;101016.63;5013257;28;45805;-81
2022/04/05 10:55:02;;;;;;;;;10.25;9.25;;;;;12.56;100.00;101009.66;5020899;28;45409;-81
2022/04/05 10:57:34;;;;;;;;;17.00;10.75;;;;;12.56;100.00;101005.38;4996742;28;46282;-83
2022/04/05 11:00:22;;;;;;;;;14.50;10.75;;;;;12.59;100.00;100999.41;5016800;28;45451;-77
2022/04/05 11:02:53;;;;;;;;;11.75;8.75;;;;;12.60;100.00;101002.06;5013258;28;46056;-77
2022/04/05 11:05:19;;;;;;;;;9.75;9.00;;;;;12.65;100.00;100997.94;5017265;28;45301;-77
2022/04/05 11:07:54;;;;;;;;;8.75;8.75;;;;;12.68;100.00;101000.66;5011639;28;45588;-79